sensor_id;sensor_type;location;lat;lon;timestamp;pressure;altitude;pressure_sealevel;temperature;humidity
5413;BME280;2729;50.056;8.678;2023-06-22T00:00:53;100200.81;;;23.88;100.00
5413;BME280;2729;50.056;8.678;2023-06-22T00:03:21;100231.78;;;24.12;100.00
5413;BME280;2729;50.056;8.678;2023-06-22T00:05:47;100251.53;;;24.20;100.00
5413;BME280;2729;50.056;8.678;2023-06-22T00:08:14;100283.91;;;24.16;100.00
5413;BME280;2729;50.056;8.678;2023-06-22T00:10:40;100297.75;;;24.10;100.00
5413;BME280;2729;50.056;8.678;2023-06-22T00:13:07;100325.88;;;24.02;100.00
5413;BME280;2729;50.056;8.678;2023-06-22T00:15:34;100335.47;;;23.94;100.00
5413;BME280;2729;50.056;8.678;2023-06-22T00:18:00;100330.50;;;24.00;100.00
5413;BME280;2729;50.056;8.678;2023-06-22T00:20:26;100341.41;;;23.97;100.00
5413;BME280;2729;50.056;8.678;2023-06-22T00:22:57;100348.91;;;23.92;100.00
5413;BME280;2729;50.056;8.678;2023-06-22T00:25:23;100351.69;;;24.02;100.00
5413;BME280;2729;50.056;8.678;2023-06-22T00:27:49;100359.81;;;23.89;100.00
5413;BME280;2729;50.056;8.678;2023-06-22T00:30:16;100375.09;;;23.76;100.00
5413;BME280;2729;50.056;8.678;2023-06-22T00:32:43;100369.25;;;23.60;100.00
5413;BME280;2729;50.056;8.678;2023-06-22T00:35:09;100376.63;;;23.56;100.00
5413;BME280;2729;50.056;8.678;2023-06-22T00:37:37;100387.66;;;23.63;100.00
5413;BME280;2729;50.056;8.678;2023-06-22T00:40:06;100404.75;;;23.71;100.00
5413;BME280;2729;50.056;8.678;2023-06-22T00:42:34;100417.25;;;23.82;100.00
5413;BME280;2729;50.056;8.678;2023-06-22T00:45:00;100434.00;;;23.84;100.00
5413;BME280;2729;50.056;8.678;2023-06-22T00:47:27;100436.66;;;23.84;100.00
5413;BME280;2729;50.056;8.678;2023-06-22T00:49:53;100439.44;;;23.83;100.00
5413;BME280;2729;50.056;8.678;2023-06-22T00:52:21;100441.97;;;23.84;100.00
5413;BME280;2729;50.056;8.678;2023-06-22T00:54:53;100443.53;;;23.76;100.00
5413;BME280;2729;50.056;8.678;2023-06-22T00:57:20;100437.25;;;23.77;100.00
5413;BME280;2729;50.056;8.678;2023-06-22T00:59:47;100438.81;;;23.68;100.00
5413;BME280;2729;50.056;8.678;2023-06-22T01:02:14;100432.53;;;23.80;100.00
5413;BME280;2729;50.056;8.678;2023-06-22T01:04:40;100432.78;;;23.88;100.00
5413;BME280;2729;50.056;8.678;2023-06-22T01:12:22;100523.97;;;23.69;100.00
5413;BME280;2729;50.056;8.678;2023-06-22T01:15:05;100542.19;;;23.76;100.00
5413;BME280;2729;50.056;8.678;2023-06-22T01:17:35;100560.00;;;23.75;100.00
5413;BME280;2729;50.056;8.678;2023-06-22T01:20:02;100583.81;;;23.65;100.00
5413;BME280;2729;50.056;8.678;2023-06-22T01:22:33;100595.47;;;23.52;100.00
5413;BME280;2729;50.056;8.678;2023-06-22T01:25:13;100616.06;;;23.37;100.00
5413;BME280;2729;50.056;8.678;2023-06-22T01:28:16;100601.59;;;23.28;100.00
5413;BME280;2729;50.056;8.678;2023-06-22T01:30:46;100543.53;;;22.97;100.00
5413;BME280;2729;50.056;8.678;2023-06-22T01:33:15;100411.16;;;22.62;100.00
5413;BME280;2729;50.056;8.678;2023-06-22T01:35:42;100303.38;;;22.57;100.00
5413;BME280;2729;50.056;8.678;2023-06-22T01:38:09;100284.47;;;22.49;100.00
5413;BME280;2729;50.056;8.678;2023-06-22T01:40:36;100299.75;;;22.58;100.00
5413;BME280;2729;50.056;8.678;2023-06-22T01:43:03;100286.84;;;22.40;100.00
5413;BME280;2729;50.056;8.678;2023-06-22T01:45:30;100284.56;;;22.23;100.00
5413;BME280;2729;50.056;8.678;2023-06-22T01:47:56;100298.41;;;22.16;100.00
5413;BME280;2729;50.056;8.678;2023-06-22T01:50:23;100337.31;;;22.29;100.00
5413;BME280;2729;50.056;8.678;2023-06-22T01:52:49;100355.09;;;22.53;100.00
5413;BME280;2729;50.056;8.678;2023-06-22T01:55:15;100384.25;;;22.54;100.00
5413;BME280;2729;50.056;8.678;2023-06-22T01:57:41;100401.75;;;22.69;100.00
5413;BME280;2729;50.056;8.678;2023-06-22T02:00:13;100409.66;;;22.58;100.00
5413;BME280;2729;50.056;8.678;2023-06-22T02:02:54;100408.38;;;22.27;100.00
5413;BME280;2729;50.056;8.678;2023-06-22T02:05:23;100408.78;;;22.34;100.00
5413;BME280;2729;50.056;8.678;2023-06-22T02:08:11;100409.53;;;22.36;100.00
5413;BME280;2729;50.056;8.678;2023-06-22T02:10:42;100400.03;;;22.44;100.00
5413;BME280;2729;50.056;8.678;2023-06-22T02:13:10;100388.09;;;22.50;100.00
5413;BME280;2729;50.056;8.678;2023-06-22T02:15:36;100384.50;;;22.38;100.00
5413;BME280;2729;50.056;8.678;2023-06-22T02:18:02;100388.97;;;22.38;100.00
5413;BME280;2729;50.056;8.678;2023-06-22T02:20:29;100385.47;;;22.37;100.00
5413;BME280;2729;50.056;8.678;2023-06-22T02:22:56;100386.84;;;22.43;100.00
5413;BME280;2729;50.056;8.678;2023-06-22T02:25:22;100380.69;;;22.42;100.00
5413;BME280;2729;50.056;8.678;2023-06-22T02:27:48;100387.13;;;22.51;100.00
5413;BME280;2729;50.056;8.678;2023-06-22T02:30:16;100388.84;;;22.52;100.00
5413;BME280;2729;50.056;8.678;2023-06-22T02:32:42;100387.31;;;22.61;100.00
5413;BME280;2729;50.056;8.678;2023-06-22T02:35:09;100380.53;;;22.57;100.00
5413;BME280;2729;50.056;8.678;2023-06-22T02:37:37;100388.09;;;22.50;100.00
5413;BME280;2729;50.056;8.678;2023-06-22T02:40:06;100379.19;;;22.38;100.00
5413;BME280;2729;50.056;8.678;2023-06-22T02:42:34;100380.69;;;22.42;100.00
5413;BME280;2729;50.056;8.678;2023-06-22T02:45:00;100382.06;;;22.35;100.00
5413;BME280;2729;50.056;8.678;2023-06-22T02:47:26;100380.50;;;22.33;100.00
5413;BME280;2729;50.056;8.678;2023-06-22T02:49:52;100384.25;;;22.18;100.00
5413;BME280;2729;50.056;8.678;2023-06-22T02:52:18;100395.06;;;22.27;100.00
5413;BME280;2729;50.056;8.678;2023-06-22T02:54:44;100395.84;;;22.17;100.00
5413;BME280;2729;50.056;8.678;2023-06-22T02:57:12;100399.16;;;22.07;100.00
5413;BME280;2729;50.056;8.678;2023-06-22T02:59:40;100395.53;;;22.08;100.00
5413;BME280;2729;50.056;8.678;2023-06-22T03:02:09;100383.84;;;22.11;100.00
5413;BME280;2729;50.056;8.678;2023-06-22T03:04:35;100365.34;;;22.09;100.00
5413;BME280;2729;50.056;8.678;2023-06-22T03:07:01;100371.47;;;22.23;100.00
5413;BME280;2729;50.056;8.678;2023-06-22T03:09:29;100356.38;;;22.23;100.00
5413;BME280;2729;50.056;8.678;2023-06-22T03:11:56;100359.44;;;22.30;100.00
5413;BME280;2729;50.056;8.678;2023-06-22T03:14:25;100342.69;;;22.40;100.00
5413;BME280;2729;50.056;8.678;2023-06-22T03:16:52;100350.06;;;22.37;100.00
5413;BME280;2729;50.056;8.678;2023-06-22T03:19:18;100363.50;;;22.23;100.00
5413;BME280;2729;50.056;8.678;2023-06-22T03:25:19;100379.47;;;21.97;100.00
5413;BME280;2729;50.056;8.678;2023-06-22T03:27:48;100371.09;;;22.03;100.00
5413;BME280;2729;50.056;8.678;2023-06-22T03:30:14;100375.44;;;22.04;100.00
5413;BME280;2729;50.056;8.678;2023-06-22T03:32:40;100371.81;;;21.93;100.00
5413;BME280;2729;50.056;8.678;2023-06-22T03:35:06;100368.41;;;21.91;100.00
5413;BME280;2729;50.056;8.678;2023-06-22T03:37:35;100359.38;;;21.93;100.00
5413;BME280;2729;50.056;8.678;2023-06-22T03:40:01;100364.91;;;21.90;100.00
5413;BME280;2729;50.056;8.678;2023-06-22T03:42:30;100360.00;;;21.97;100.00
5413;BME280;2729;50.056;8.678;2023-06-22T03:44:56;100356.50;;;21.96;100.00
5413;BME280;2729;50.056;8.678;2023-06-22T03:47:22;100356.84;;;22.04;100.00
5413;BME280;2729;50.056;8.678;2023-06-22T03:49:48;100356.72;;;22.06;100.00
5413;BME280;2729;50.056;8.678;2023-06-22T03:52:14;100356.19;;;22.13;100.00
5413;BME280;2729;50.056;8.678;2023-06-22T03:54:40;100352.03;;;22.09;100.00
5413;BME280;2729;50.056;8.678;2023-06-22T03:57:06;100358.81;;;22.01;100.00
5413;BME280;2729;50.056;8.678;2023-06-22T03:59:32;100358.94;;;21.99;100.00
5413;BME280;2729;50.056;8.678;2023-06-22T04:01:58;100348.00;;;22.04;100.00
5413;BME280;2729;50.056;8.678;2023-06-22T04:04:24;100349.06;;;22.14;100.00
5413;BME280;2729;50.056;8.678;2023-06-22T04:06:50;100344.53;;;22.27;100.00
5413;BME280;2729;50.056;8.678;2023-06-22T04:09:16;100353.09;;;22.07;100.00
5413;BME280;2729;50.056;8.678;2023-06-22T04:11:42;100351.63;;;21.90;100.00
5413;BME280;2729;50.056;8.678;2023-06-22T04:14:08;100363.09;;;21.91;100.00
5413;BME280;2729;50.056;8.678;2023-06-22T04:16:34;100360.13;;;22.08;100.00
5413;BME280;2729;50.056;8.678;2023-06-22T04:19:00;100363.81;;;22.18;100.00
5413;BME280;2729;50.056;8.678;2023-06-22T04:21:26;100369.03;;;22.20;100.00
5413;BME280;2729;50.056;8.678;2023-06-22T04:23:52;100354.47;;;22.12;100.00
5413;BME280;2729;50.056;8.678;2023-06-22T04:26:18;100358.47;;;22.31;100.00
5413;BME280;2729;50.056;8.678;2023-06-22T04:28:47;100362.19;;;22.28;100.00
5413;BME280;2729;50.056;8.678;2023-06-22T04:31:17;100356.22;;;22.37;100.00
5413;BME280;2729;50.056;8.678;2023-06-22T04:33:46;100355.81;;;22.31;100.00
5413;BME280;2729;50.056;8.678;2023-06-22T04:36:12;100357.97;;;22.26;100.00
5413;BME280;2729;50.056;8.678;2023-06-22T04:38:41;100372.34;;;22.10;100.00
5413;BME280;2729;50.056;8.678;2023-06-22T04:41:10;100363.28;;;22.00;100.00
5413;BME280;2729;50.056;8.678;2023-06-22T04:43:40;100360.53;;;22.14;100.00
5413;BME280;2729;50.056;8.678;2023-06-22T04:46:06;100360.53;;;22.14;100.00
5413;BME280;2729;50.056;8.678;2023-06-22T04:48:38;100358.03;;;22.37;100.00
5413;BME280;2729;50.056;8.678;2023-06-22T04:51:04;100359.38;;;22.42;100.00
5413;BME280;2729;50.056;8.678;2023-06-22T04:53:31;100360.38;;;22.29;100.00
5413;BME280;2729;50.056;8.678;2023-06-22T04:55:57;100360.78;;;22.35;100.00
5413;BME280;2729;50.056;8.678;2023-06-22T04:58:23;100362.38;;;22.38;100.00
5413;BME280;2729;50.056;8.678;2023-06-22T05:00:52;100359.22;;;22.33;100.00
5413;BME280;2729;50.056;8.678;2023-06-22T05:03:18;100343.44;;;22.42;100.00
5413;BME280;2729;50.056;8.678;2023-06-22T05:05:44;100360.97;;;22.45;100.00
5413;BME280;2729;50.056;8.678;2023-06-22T05:08:10;100350.97;;;22.49;100.00
5413;BME280;2729;50.056;8.678;2023-06-22T05:10:36;100355.88;;;22.42;100.00
5413;BME280;2729;50.056;8.678;2023-06-22T05:13:02;100351.78;;;22.25;100.00
5413;BME280;2729;50.056;8.678;2023-06-22T05:15:28;100351.47;;;22.54;100.00
5413;BME280;2729;50.056;8.678;2023-06-22T05:17:56;100347.06;;;22.65;100.00
5413;BME280;2729;50.056;8.678;2023-06-22T05:20:22;100350.84;;;22.50;100.00
5413;BME280;2729;50.056;8.678;2023-06-22T05:22:48;100354.44;;;22.62;100.00
5413;BME280;2729;50.056;8.678;2023-06-22T05:25:14;100347.34;;;22.73;100.00
5413;BME280;2729;50.056;8.678;2023-06-22T05:27:40;100342.09;;;22.61;100.00
5413;BME280;2729;50.056;8.678;2023-06-22T05:30:07;100339.47;;;22.72;100.00
5413;BME280;2729;50.056;8.678;2023-06-22T05:32:34;100342.22;;;22.83;100.00
5413;BME280;2729;50.056;8.678;2023-06-22T05:35:00;100336.91;;;22.83;100.00
5413;BME280;2729;50.056;8.678;2023-06-22T05:37:26;100330.38;;;22.63;100.00
5413;BME280;2729;50.056;8.678;2023-06-22T05:39:52;100329.28;;;22.90;100.00
5413;BME280;2729;50.056;8.678;2023-06-22T05:42:19;100325.31;;;22.95;100.00
5413;BME280;2729;50.056;8.678;2023-06-22T05:44:45;100328.34;;;22.91;100.00
5413;BME280;2729;50.056;8.678;2023-06-22T05:47:13;100327.06;;;23.07;100.00
5413;BME280;2729;50.056;8.678;2023-06-22T05:49:39;100320.13;;;22.94;100.00
5413;BME280;2729;50.056;8.678;2023-06-22T05:52:05;100319.84;;;23.21;100.00
5413;BME280;2729;50.056;8.678;2023-06-22T05:54:31;100326.16;;;23.31;100.00
5413;BME280;2729;50.056;8.678;2023-06-22T05:56:57;100331.22;;;23.34;100.00
5413;BME280;2729;50.056;8.678;2023-06-22T05:59:23;100309.69;;;23.37;100.00
5413;BME280;2729;50.056;8.678;2023-06-22T06:01:48;100323.53;;;23.53;100.00
5413;BME280;2729;50.056;8.678;2023-06-22T06:04:19;100308.69;;;23.62;100.00
5413;BME280;2729;50.056;8.678;2023-06-22T06:06:46;100316.56;;;23.63;100.00
5413;BME280;2729;50.056;8.678;2023-06-22T06:09:14;100318.50;;;23.61;100.00
5413;BME280;2729;50.056;8.678;2023-06-22T06:11:43;100324.09;;;23.34;100.00
5413;BME280;2729;50.056;8.678;2023-06-22T06:14:09;100314.00;;;23.62;100.00
5413;BME280;2729;50.056;8.678;2023-06-22T06:16:35;100314.38;;;23.80;100.00
5413;BME280;2729;50.056;8.678;2023-06-22T06:19:01;100302.13;;;23.88;100.00
5413;BME280;2729;50.056;8.678;2023-06-22T06:21:27;100300.53;;;24.30;100.00
5413;BME280;2729;50.056;8.678;2023-06-22T06:27:37;100286.69;;;24.25;100.00
5413;BME280;2729;50.056;8.678;2023-06-22T06:30:03;100297.41;;;24.57;100.00
5413;BME280;2729;50.056;8.678;2023-06-22T06:32:29;100282.59;;;24.10;100.00
5413;BME280;2729;50.056;8.678;2023-06-22T06:34:55;100289.78;;;24.53;100.00
5413;BME280;2729;50.056;8.678;2023-06-22T06:37:21;100297.66;;;24.54;100.00
5413;BME280;2729;50.056;8.678;2023-06-22T06:39:48;100291.47;;;24.54;100.00
5413;BME280;2729;50.056;8.678;2023-06-22T06:42:13;100286.38;;;24.83;100.00
5413;BME280;2729;50.056;8.678;2023-06-22T06:44:40;100293.28;;;24.85;100.00
5413;BME280;2729;50.056;8.678;2023-06-22T06:47:06;100288.00;;;24.74;100.00
5413;BME280;2729;50.056;8.678;2023-06-22T06:49:33;100291.63;;;24.73;100.00
5413;BME280;2729;50.056;8.678;2023-06-22T06:51:59;100281.50;;;24.88;100.00
5413;BME280;2729;50.056;8.678;2023-06-22T06:54:25;100275.09;;;24.79;100.00
5413;BME280;2729;50.056;8.678;2023-06-22T06:56:51;100273.56;;;24.97;100.00
5413;BME280;2729;50.056;8.678;2023-06-22T07:07:00;100277.28;;;25.06;100.00
5413;BME280;2729;50.056;8.678;2023-06-22T07:09:27;100273.63;;;25.07;100.00
5413;BME280;2729;50.056;8.678;2023-06-22T07:11:53;100267.97;;;25.21;100.00
5413;BME280;2729;50.056;8.678;2023-06-22T07:14:19;100266.78;;;25.35;100.00
5413;BME280;2729;50.056;8.678;2023-06-22T07:16:46;100248.59;;;25.59;100.00
5413;BME280;2729;50.056;8.678;2023-06-22T07:19:13;100241.41;;;25.90;100.00
5413;BME280;2729;50.056;8.678;2023-06-22T07:21:39;100241.38;;;25.81;100.00
5413;BME280;2729;50.056;8.678;2023-06-22T07:24:07;100240.41;;;25.91;100.00
5413;BME280;2729;50.056;8.678;2023-06-22T07:26:34;100243.94;;;25.61;100.00
5413;BME280;2729;50.056;8.678;2023-06-22T07:28:59;100246.56;;;25.73;100.00
5413;BME280;2729;50.056;8.678;2023-06-22T07:31:26;100246.19;;;25.87;100.00
5413;BME280;2729;50.056;8.678;2023-06-22T07:33:52;100236.41;;;26.07;100.00
5413;BME280;2729;50.056;8.678;2023-06-22T07:36:18;100240.06;;;26.15;100.00
5413;BME280;2729;50.056;8.678;2023-06-22T07:38:44;100241.75;;;26.07;100.00
5413;BME280;2729;50.056;8.678;2023-06-22T07:41:10;100233.31;;;26.31;100.00
5413;BME280;2729;50.056;8.678;2023-06-22T07:43:36;100229.00;;;26.39;100.00
5413;BME280;2729;50.056;8.678;2023-06-22T07:46:03;100218.09;;;26.31;100.00
5413;BME280;2729;50.056;8.678;2023-06-22T07:48:29;100221.91;;;26.19;100.00
5413;BME280;2729;50.056;8.678;2023-06-22T07:50:56;100224.03;;;26.25;100.00
5413;BME280;2729;50.056;8.678;2023-06-22T07:53:22;100218.09;;;26.31;100.00
5413;BME280;2729;50.056;8.678;2023-06-22T07:55:50;100211.81;;;26.51;100.00
5413;BME280;2729;50.056;8.678;2023-06-22T07:58:16;100215.88;;;26.75;100.00
5413;BME280;2729;50.056;8.678;2023-06-22T08:00:44;100226.16;;;26.70;100.00
5413;BME280;2729;50.056;8.678;2023-06-22T08:03:10;100209.25;;;26.69;100.00
5413;BME280;2729;50.056;8.678;2023-06-22T08:05:36;100217.84;;;26.73;100.00
5413;BME280;2729;50.056;8.678;2023-06-22T08:08:02;100213.19;;;26.75;100.00
5413;BME280;2729;50.056;8.678;2023-06-22T08:13:11;100216.38;;;27.07;100.00
5413;BME280;2729;50.056;8.678;2023-06-22T08:15:37;100213.19;;;26.75;100.00
5413;BME280;2729;50.056;8.678;2023-06-22T08:18:03;100206.53;;;26.98;100.00
5413;BME280;2729;50.056;8.678;2023-06-22T08:20:29;100198.28;;;27.19;100.00
5413;BME280;2729;50.056;8.678;2023-06-22T08:22:55;100202.34;;;27.33;100.00
5413;BME280;2729;50.056;8.678;2023-06-22T08:25:23;100200.16;;;27.46;100.00
5413;BME280;2729;50.056;8.678;2023-06-22T08:27:49;100192.44;;;27.70;100.00
5413;BME280;2729;50.056;8.678;2023-06-22T08:30:15;100176.13;;;27.81;100.00
5413;BME280;2729;50.056;8.678;2023-06-22T08:32:43;100174.44;;;27.80;100.00
5413;BME280;2729;50.056;8.678;2023-06-22T08:35:09;100182.13;;;27.93;100.00
5413;BME280;2729;50.056;8.678;2023-06-22T08:37:35;100176.91;;;28.09;100.00
5413;BME280;2729;50.056;8.678;2023-06-22T08:40:03;100171.25;;;27.95;100.00
5413;BME280;2729;50.056;8.678;2023-06-22T08:42:34;100166.72;;;28.13;100.00
5413;BME280;2729;50.056;8.678;2023-06-22T08:45:00;100167.34;;;28.07;100.00
5413;BME280;2729;50.056;8.678;2023-06-22T08:47:29;100162.84;;;28.25;100.00
5413;BME280;2729;50.056;8.678;2023-06-22T08:49:55;100159.69;;;28.30;100.00
5413;BME280;2729;50.056;8.678;2023-06-22T08:52:23;100157.75;;;28.22;100.00
5413;BME280;2729;50.056;8.678;2023-06-22T08:54:49;100150.06;;;28.45;100.00
5413;BME280;2729;50.056;8.678;2023-06-22T08:57:15;100149.06;;;28.64;100.00
5413;BME280;2729;50.056;8.678;2023-06-22T08:59:42;100138.31;;;28.64;100.00
5413;BME280;2729;50.056;8.678;2023-06-22T09:02:08;100148.06;;;28.65;100.00
5413;BME280;2729;50.056;8.678;2023-06-22T09:04:34;100147.78;;;28.94;100.00
5413;BME280;2729;50.056;8.678;2023-06-22T09:07:01;100143.72;;;28.90;100.00
5413;BME280;2729;50.056;8.678;2023-06-22T09:09:27;100143.25;;;28.94;100.00
5413;BME280;2729;50.056;8.678;2023-06-22T09:11:53;100144.09;;;28.95;100.00
5413;BME280;2729;50.056;8.678;2023-06-22T09:14:19;100145.28;;;29.00;100.00
5413;BME280;2729;50.056;8.678;2023-06-22T09:16:46;100145.09;;;28.94;100.00
5413;BME280;2729;50.056;8.678;2023-06-22T09:19:12;100139.19;;;28.90;100.00
5413;BME280;2729;50.056;8.678;2023-06-22T09:21:38;100129.81;;;28.94;100.00
5413;BME280;2729;50.056;8.678;2023-06-22T09:24:04;100132.66;;;29.27;100.00
5413;BME280;2729;50.056;8.678;2023-06-22T09:26:30;100129.97;;;29.27;100.00
5413;BME280;2729;50.056;8.678;2023-06-22T09:28:56;100128.88;;;29.46;100.00
5413;BME280;2729;50.056;8.678;2023-06-22T09:31:23;100124.13;;;29.39;100.00
5413;BME280;2729;50.056;8.678;2023-06-22T09:33:54;100117.03;;;29.30;100.00
5413;BME280;2729;50.056;8.678;2023-06-22T09:36:23;100111.31;;;29.75;100.00
5413;BME280;2729;50.056;8.678;2023-06-22T09:38:49;100108.44;;;29.69;99.01
5413;BME280;2729;50.056;8.678;2023-06-22T09:41:22;100105.75;;;29.77;98.30
5413;BME280;2729;50.056;8.678;2023-06-22T09:43:48;100104.41;;;29.81;92.65
5413;BME280;2729;50.056;8.678;2023-06-22T09:46:17;100105.22;;;29.65;97.52
5413;BME280;2729;50.056;8.678;2023-06-22T09:48:43;100096.31;;;29.73;93.76
5413;BME280;2729;50.056;8.678;2023-06-22T09:51:09;100091.16;;;30.04;93.85
5413;BME280;2729;50.056;8.678;2023-06-22T09:53:35;100092.00;;;30.04;95.14
5413;BME280;2729;50.056;8.678;2023-06-22T09:56:01;100093.88;;;30.20;90.82
5413;BME280;2729;50.056;8.678;2023-06-22T09:58:27;100091.84;;;30.14;93.50
5413;BME280;2729;50.056;8.678;2023-06-22T10:00:53;100091.31;;;30.35;90.32
5413;BME280;2729;50.056;8.678;2023-06-22T10:03:20;100082.72;;;29.91;90.88
5413;BME280;2729;50.056;8.678;2023-06-22T10:05:46;100092.50;;;30.32;91.93
5413;BME280;2729;50.056;8.678;2023-06-22T10:08:14;100087.63;;;30.28;89.08
5413;BME280;2729;50.056;8.678;2023-06-22T10:10:40;100085.09;;;30.59;90.65
5413;BME280;2729;50.056;8.678;2023-06-22T10:13:09;100069.06;;;30.57;87.16
5413;BME280;2729;50.056;8.678;2023-06-22T10:15:38;100080.38;;;30.45;88.39
5413;BME280;2729;50.056;8.678;2023-06-22T10:18:04;100065.56;;;30.32;87.14
5413;BME280;2729;50.056;8.678;2023-06-22T10:20:30;100062.84;;;30.49;84.08
5413;BME280;2729;50.056;8.678;2023-06-22T10:22:56;100058.81;;;30.45;85.28
5413;BME280;2729;50.056;8.678;2023-06-22T10:25:22;100045.06;;;30.87;84.74
5413;BME280;2729;50.056;8.678;2023-06-22T10:27:48;100049.63;;;30.86;88.49
5413;BME280;2729;50.056;8.678;2023-06-22T10:30:14;100037.88;;;30.79;82.15
5413;BME280;2729;50.056;8.678;2023-06-22T10:32:43;100027.50;;;30.60;82.48
5413;BME280;2729;50.056;8.678;2023-06-22T10:39:10;100020.78;;;30.95;83.94
5413;BME280;2729;50.056;8.678;2023-06-22T10:41:36;100019.19;;;31.09;79.21
5413;BME280;2729;50.056;8.678;2023-06-22T10:44:02;100011.41;;;31.14;74.29
5413;BME280;2729;50.056;8.678;2023-06-22T10:46:29;100003.00;;;31.17;76.49
5413;BME280;2729;50.056;8.678;2023-06-22T10:48:55;99993.97;;;30.62;80.60
5413;BME280;2729;50.056;8.678;2023-06-22T10:51:22;99985.53;;;31.58;76.75
5413;BME280;2729;50.056;8.678;2023-06-22T10:53:48;99989.25;;;31.34;81.30
5413;BME280;2729;50.056;8.678;2023-06-22T10:56:14;99989.06;;;31.36;74.32
5413;BME280;2729;50.056;8.678;2023-06-22T10:58:40;99977.28;;;30.98;77.18
5413;BME280;2729;50.056;8.678;2023-06-22T11:01:06;99970.25;;;31.74;73.14
5413;BME280;2729;50.056;8.678;2023-06-22T11:03:32;99962.94;;;31.82;73.73
5413;BME280;2729;50.056;8.678;2023-06-22T11:05:58;99962.41;;;31.41;77.18
5413;BME280;2729;50.056;8.678;2023-06-22T11:08:24;99952.03;;;31.30;74.17
5413;BME280;2729;50.056;8.678;2023-06-22T11:10:51;99951.78;;;31.62;75.97
5413;BME280;2729;50.056;8.678;2023-06-22T11:13:17;99946.94;;;31.35;78.77
5413;BME280;2729;50.056;8.678;2023-06-22T11:15:43;99934.75;;;31.62;79.78
5413;BME280;2729;50.056;8.678;2023-06-22T11:18:09;99941.19;;;31.38;75.97
5413;BME280;2729;50.056;8.678;2023-06-22T11:20:35;99938.06;;;31.72;73.97
5413;BME280;2729;50.056;8.678;2023-06-22T11:23:05;99947.84;;;31.27;76.15
5413;BME280;2729;50.056;8.678;2023-06-22T11:25:35;99926.19;;;32.11;74.36
5413;BME280;2729;50.056;8.678;2023-06-22T11:28:02;99920.16;;;32.38;72.55
5413;BME280;2729;50.056;8.678;2023-06-22T11:30:29;99906.16;;;31.90;73.63
5413;BME280;2729;50.056;8.678;2023-06-22T11:32:56;99917.41;;;31.94;72.58
5413;BME280;2729;50.056;8.678;2023-06-22T11:35:22;99918.06;;;31.96;73.30
5413;BME280;2729;50.056;8.678;2023-06-22T11:37:48;99913.88;;;32.08;73.34
5413;BME280;2729;50.056;8.678;2023-06-22T11:40:14;99924.56;;;31.26;74.65
5413;BME280;2729;50.056;8.678;2023-06-22T11:45:43;99908.88;;;31.67;72.17
5413;BME280;2729;50.056;8.678;2023-06-22T11:48:09;99906.50;;;31.73;74.72
5413;BME280;2729;50.056;8.678;2023-06-22T11:50:35;99906.34;;;31.66;71.67
5413;BME280;2729;50.056;8.678;2023-06-22T11:53:02;99907.34;;;31.88;72.73
5413;BME280;2729;50.056;8.678;2023-06-22T11:55:31;99910.25;;;31.26;73.29
5413;BME280;2729;50.056;8.678;2023-06-22T11:57:57;99898.31;;;31.81;74.19
5413;BME280;2729;50.056;8.678;2023-06-22T12:00:29;99888.47;;;32.17;71.09
5413;BME280;2729;50.056;8.678;2023-06-22T12:02:55;99896.75;;;31.49;76.82
5413;BME280;2729;50.056;8.678;2023-06-22T12:05:22;99889.22;;;30.90;78.35
5413;BME280;2729;50.056;8.678;2023-06-22T12:07:49;99897.38;;;31.51;78.03
5413;BME280;2729;50.056;8.678;2023-06-22T12:10:16;99890.88;;;31.83;72.53
5413;BME280;2729;50.056;8.678;2023-06-22T12:12:43;99889.56;;;30.87;75.17
5413;BME280;2729;50.056;8.678;2023-06-22T12:15:10;99879.06;;;31.46;74.08
5413;BME280;2729;50.056;8.678;2023-06-22T12:17:36;99875.97;;;32.16;75.48
5413;BME280;2729;50.056;8.678;2023-06-22T12:20:02;99882.41;;;32.45;72.51
5413;BME280;2729;50.056;8.678;2023-06-22T12:22:32;99888.56;;;31.94;69.38
5413;BME280;2729;50.056;8.678;2023-06-22T12:24:58;99893.94;;;30.88;77.07
5413;BME280;2729;50.056;8.678;2023-06-22T12:27:25;99890.53;;;30.94;75.33
5413;BME280;2729;50.056;8.678;2023-06-22T12:29:51;99882.69;;;32.06;73.19
5413;BME280;2729;50.056;8.678;2023-06-22T12:32:17;99874.13;;;32.32;74.65
5413;BME280;2729;50.056;8.678;2023-06-22T12:34:44;99871.72;;;32.73;72.61
5413;BME280;2729;50.056;8.678;2023-06-22T12:37:10;99879.22;;;31.82;70.64
5413;BME280;2729;50.056;8.678;2023-06-22T12:39:36;99876.06;;;31.18;75.34
5413;BME280;2729;50.056;8.678;2023-06-22T12:42:03;99867.94;;;31.26;81.46
5413;BME280;2729;50.056;8.678;2023-06-22T12:44:28;99885.06;;;31.33;81.13
5413;BME280;2729;50.056;8.678;2023-06-22T12:46:54;99872.81;;;31.98;74.34
5413;BME280;2729;50.056;8.678;2023-06-22T12:49:20;99859.50;;;31.96;71.85
5413;BME280;2729;50.056;8.678;2023-06-22T12:51:46;99865.91;;;31.81;76.57
5413;BME280;2729;50.056;8.678;2023-06-22T12:54:12;99865.38;;;31.48;73.05
5413;BME280;2729;50.056;8.678;2023-06-22T12:56:38;99867.63;;;32.26;74.08
5413;BME280;2729;50.056;8.678;2023-06-22T12:59:04;99871.53;;;32.23;76.74
5413;BME280;2729;50.056;8.678;2023-06-22T13:01:31;99873.28;;;31.49;73.58
5413;BME280;2729;50.056;8.678;2023-06-22T13:04:00;99879.16;;;31.53;78.31
5413;BME280;2729;50.056;8.678;2023-06-22T13:06:26;99867.88;;;32.16;75.32
5413;BME280;2729;50.056;8.678;2023-06-22T13:08:52;99873.09;;;32.18;71.81
5413;BME280;2729;50.056;8.678;2023-06-22T13:11:18;99860.28;;;32.56;77.11
5413;BME280;2729;50.056;8.678;2023-06-22T13:13:45;99854.38;;;32.16;69.81
5413;BME280;2729;50.056;8.678;2023-06-22T13:16:11;99848.78;;;32.69;74.69
5413;BME280;2729;50.056;8.678;2023-06-22T13:18:37;99841.00;;;32.59;70.33
5413;BME280;2729;50.056;8.678;2023-06-22T13:21:04;99838.81;;;32.33;69.70
5413;BME280;2729;50.056;8.678;2023-06-22T13:23:30;99840.56;;;32.41;75.31
5413;BME280;2729;50.056;8.678;2023-06-22T13:25:57;99841.53;;;31.89;73.75
5413;BME280;2729;50.056;8.678;2023-06-22T13:28:23;99827.09;;;32.62;75.92
5413;BME280;2729;50.056;8.678;2023-06-22T13:30:49;99821.41;;;32.57;74.96
5413;BME280;2729;50.056;8.678;2023-06-22T13:33:15;99821.22;;;32.58;74.56